createdAt,value
2018-12-22T00:01:55.933Z,75.50
2018-12-22T00:04:25.734Z,74.93
2018-12-22T00:06:55.617Z,74.87
2018-12-22T00:09:25.962Z,75.05
2018-12-22T00:11:55.803Z,75.18
2018-12-22T00:14:25.601Z,75.80
2018-12-22T00:16:55.498Z,75.10
2018-12-22T00:19:25.329Z,75.85
2018-12-22T00:21:55.045Z,75.72
2018-12-22T00:24:25.519Z,75.71
2018-12-22T00:26:55.293Z,75.40
2018-12-22T00:29:25.202Z,75.45
2018-12-22T00:31:55.063Z,75.47
2018-12-22T00:34:25.002Z,76.22
2018-12-22T00:36:54.953Z,76.34
2018-12-22T00:39:24.780Z,75.94
2018-12-22T00:41:54.474Z,76.19
2018-12-22T00:44:24.170Z,76.35
2018-12-22T00:46:53.892Z,76.18
2018-12-22T00:49:23.694Z,76.15
2018-12-22T00:51:53.482Z,76.64
2018-12-22T00:54:23.343Z,76.38
2018-12-22T00:56:53.141Z,76.62
2018-12-22T00:59:22.930Z,77.32
2018-12-22T01:01:52.720Z,77.19
2018-12-22T01:04:22.776Z,76.96
2018-12-22T01:06:52.782Z,77.60
2018-12-22T01:09:23.345Z,78.23
2018-12-22T01:11:53.226Z,78.04
2018-12-22T01:14:23.782Z,78.71
2018-12-22T01:16:53.599Z,78.51
2018-12-22T01:19:23.401Z,78.94
2018-12-22T01:21:53.213Z,79.57
2018-12-22T01:24:22.902Z,80.47
2018-12-22T01:26:52.779Z,80.52
2018-12-22T01:29:22.603Z,81.19
2018-12-22T01:31:52.362Z,81.37
2018-12-22T01:34:22.270Z,82.20
2018-12-22T01:36:52.210Z,82.00
2018-12-22T01:39:22.292Z,82.09
2018-12-22T01:41:52.511Z,82.47
2018-12-22T01:44:22.225Z,82.51
2018-12-22T01:46:51.921Z,82.80
2018-12-22T01:49:21.816Z,82.16
2018-12-22T01:51:51.615Z,81.79
2018-12-22T01:54:21.317Z,82.44
2018-12-22T01:56:51.208Z,81.86
2018-12-22T01:59:21.077Z,82.64
2018-12-22T02:01:50.827Z,82.33
2018-12-22T02:04:20.613Z,82.95
2018-12-22T02:06:50.623Z,83.83
2018-12-22T02:09:20.353Z,83.62
2018-12-22T02:11:50.069Z,84.48
2018-12-22T02:14:20.001Z,84.58
2018-12-22T02:16:49.736Z,84.98
2018-12-22T02:19:19.400Z,84.95
2018-12-22T02:21:49.133Z,85.15
2018-12-22T02:24:18.976Z,86.10
2018-12-22T02:26:48.667Z,85.80
2018-12-22T02:29:18.493Z,85.82
2018-12-22T02:31:48.397Z,86.13
2018-12-22T02:34:18.192Z,86.05
2018-12-22T02:36:47.969Z,86.06
2018-12-22T02:39:17.689Z,86.08
2018-12-22T02:41:47.529Z,86.46
2018-12-22T02:44:17.221Z,86.93
2018-12-22T02:46:47.058Z,86.94
2018-12-22T02:49:16.800Z,87.34
2018-12-22T02:51:46.561Z,87.80
2018-12-22T02:54:16.337Z,87.92
2018-12-22T02:56:46.109Z,88.03
2018-12-22T02:59:16.092Z,87.99
2018-12-22T03:01:45.788Z,88.18
2018-12-22T03:04:16.265Z,87.67
2018-12-22T03:06:46.063Z,87.89
2018-12-22T03:09:16.584Z,87.33
2018-12-22T03:11:46.431Z,86.99
2018-12-22T03:14:16.666Z,86.86
2018-12-22T03:16:46.559Z,85.85
2018-12-22T03:19:16.422Z,85.67
2018-12-22T03:21:46.300Z,86.14
2018-12-22T03:24:16.240Z,85.80
2018-12-22T03:26:46.123Z,84.80
2018-12-22T03:29:16.172Z,85.22
2018-12-22T03:31:46.052Z,84.59
2018-12-22T03:34:16.597Z,85.84
2018-12-22T03:36:46.531Z,86.11
2018-12-22T03:39:16.620Z,85.97
2018-12-22T03:41:46.445Z,86.89
2018-12-22T03:44:16.517Z,87.36
2018-12-22T03:46:46.238Z,87.25
2018-12-22T03:49:16.020Z,87.93
2018-12-22T03:51:46.308Z,87.50
2018-12-22T03:54:16.073Z,87.48
2018-12-22T03:56:45.816Z,86.95
2018-12-22T03:59:24.481Z,87.33
2018-12-22T04:01:47.367Z,87.34
2018-12-22T04:04:17.084Z,86.84
2018-12-22T04:06:46.913Z,87.41
2018-12-22T04:09:16.797Z,87.41
2018-12-22T04:11:46.450Z,87.30
2018-12-22T04:14:16.211Z,86.53
2018-12-22T04:16:45.892Z,86.30
2018-12-22T04:19:15.755Z,86.19
2018-12-22T04:21:45.514Z,85.73
2018-12-22T04:24:15.257Z,85.79
2018-12-22T04:26:45.003Z,85.49
2018-12-22T04:29:14.805Z,85.27
2018-12-22T04:31:44.611Z,85.75
2018-12-22T04:34:14.328Z,85.17
2018-12-22T04:36:44.001Z,84.74
2018-12-22T04:39:13.748Z,85.85
2018-12-22T04:41:43.474Z,85.55
2018-12-22T04:44:13.636Z,85.83
2018-12-22T04:46:43.312Z,85.89
2018-12-22T04:49:13.179Z,86.01
2018-12-22T04:51:43.086Z,86.93
2018-12-22T04:54:13.105Z,86.77
2018-12-22T04:56:42.829Z,86.62
2018-12-22T04:59:12.567Z,86.63
2018-12-22T05:01:42.364Z,87.10
2018-12-22T05:04:12.800Z,87.16
2018-12-22T05:06:42.505Z,87.97
2018-12-22T05:09:12.148Z,87.72
2018-12-22T05:11:41.885Z,88.27
2018-12-22T05:14:11.620Z,88.42
2018-12-22T05:16:42.149Z,88.57
2018-12-22T05:19:11.847Z,88.08
2018-12-22T05:21:41.552Z,88.33
2018-12-22T05:24:11.999Z,88.57
2018-12-22T05:26:41.761Z,87.65
2018-12-22T05:29:11.516Z,87.35
2018-12-22T05:31:41.236Z,88.03
2018-12-22T05:34:10.955Z,88.11
2018-12-22T05:36:40.733Z,87.76
2018-12-22T05:39:10.583Z,87.59
2018-12-22T05:41:40.501Z,87.63
2018-12-22T05:44:10.204Z,87.57
2018-12-22T05:46:40.137Z,87.60
2018-12-22T05:49:09.927Z,87.03
2018-12-22T05:51:39.639Z,86.88
2018-12-22T05:54:09.606Z,87.05
2018-12-22T05:56:39.346Z,87.42
2018-12-22T05:59:09.054Z,88.03
2018-12-22T06:01:38.769Z,87.25
2018-12-22T06:04:08.613Z,87.15
2018-12-22T06:06:38.520Z,86.68
2018-12-22T06:09:08.549Z,86.42
2018-12-22T06:11:38.393Z,87.14
2018-12-22T06:14:08.163Z,86.99
2018-12-22T06:16:38.023Z,86.29
2018-12-22T06:19:08.924Z,85.83
2018-12-22T06:21:38.591Z,86.27
2018-12-22T06:24:08.520Z,85.64
2018-12-22T06:26:38.312Z,86.19
2018-12-22T06:29:08.230Z,86.34
2018-12-22T06:31:37.960Z,85.52
2018-12-22T06:34:08.000Z,85.01
2018-12-22T06:36:37.680Z,85.01
2018-12-22T06:39:08.081Z,85.69
2018-12-22T06:41:37.927Z,85.44
2018-12-22T06:44:07.865Z,85.04
2018-12-22T06:46:37.597Z,84.72
2018-12-22T06:49:07.511Z,83.83
2018-12-22T06:51:37.358Z,83.78
2018-12-22T06:54:07.291Z,84.17
2018-12-22T06:56:37.023Z,83.80
2018-12-22T06:59:06.843Z,83.24
2018-12-22T07:01:36.641Z,83.45
2018-12-22T07:04:06.697Z,83.64
2018-12-22T07:06:36.585Z,82.78
2018-12-22T07:09:08.100Z,83.56
2018-12-22T07:11:37.764Z,82.72
2018-12-22T07:14:07.470Z,83.16
2018-12-22T07:16:37.333Z,82.92
2018-12-22T07:19:07.004Z,82.24
2018-12-22T07:21:36.662Z,82.50
2018-12-22T07:24:06.853Z,82.52
2018-12-22T07:26:37.227Z,82.55
2018-12-22T07:29:07.314Z,82.22
2018-12-22T07:31:38.211Z,81.47
2018-12-22T07:34:08.201Z,81.52
2018-12-22T07:36:37.933Z,81.32
2018-12-22T07:39:09.275Z,80.97
2018-12-22T07:41:38.911Z,81.14
2018-12-22T07:44:08.663Z,81.80
2018-12-22T07:46:38.439Z,81.70
2018-12-22T07:49:08.205Z,81.52
2018-12-22T07:51:37.846Z,81.18
2018-12-22T07:54:07.788Z,81.06
2018-12-22T07:56:37.510Z,80.20
2018-12-22T07:59:07.281Z,80.67
2018-12-22T08:01:37.097Z,80.28
2018-12-22T08:04:07.052Z,79.90
2018-12-22T08:06:36.895Z,79.83
2018-12-22T08:09:08.823Z,79.52
2018-12-22T08:11:38.724Z,79.40
2018-12-22T08:14:08.424Z,80.63
2018-12-22T08:16:38.858Z,79.90
2018-12-22T08:19:08.596Z,79.06
2018-12-22T08:21:38.524Z,79.57
2018-12-22T08:24:08.407Z,79.39
2018-12-22T08:26:38.107Z,79.49
2018-12-22T08:29:08.101Z,79.13
2018-12-22T08:31:37.792Z,79.22
2018-12-22T08:34:08.464Z,79.25
2018-12-22T08:36:39.184Z,78.68
2018-12-22T08:39:10.176Z,78.73
2018-12-22T08:41:39.937Z,78.68
2018-12-22T08:44:09.749Z,78.98
2018-12-22T08:46:40.147Z,79.35
2018-12-22T08:49:09.984Z,79.10
2018-12-22T08:51:39.690Z,78.13
2018-12-22T08:54:09.606Z,78.25
2018-12-22T08:56:40.276Z,78.62
2018-12-22T08:59:10.261Z,79.15
2018-12-22T09:01:40.205Z,78.43
2018-12-22T09:04:10.064Z,78.85
2018-12-22T09:06:39.919Z,78.14
2018-12-22T09:09:10.775Z,78.24
2018-12-22T09:11:40.743Z,78.33
2018-12-22T09:14:10.608Z,77.97
2018-12-22T09:16:40.507Z,78.65
2018-12-22T09:19:10.292Z,77.85
2018-12-22T09:21:40.010Z,78.12
2018-12-22T09:24:10.775Z,78.15
2018-12-22T09:26:41.268Z,79.07
2018-12-22T09:29:11.008Z,78.65
2018-12-22T09:31:41.346Z,77.90
2018-12-22T09:34:13.497Z,77.98
2018-12-22T09:36:43.081Z,78.37
2018-12-22T09:39:13.099Z,77.87
2018-12-22T09:41:42.860Z,77.73
2018-12-22T09:44:12.643Z,78.31
2018-12-22T09:46:42.437Z,77.42
2018-12-22T09:49:13.084Z,77.98
2018-12-22T09:51:43.081Z,78.00
2018-12-22T09:54:12.809Z,78.12
2018-12-22T09:56:42.594Z,77.69
2018-12-22T09:59:12.374Z,78.33
2018-12-22T10:01:42.856Z,77.90
2018-12-22T10:04:12.653Z,77.13
2018-12-22T10:06:42.622Z,77.71
2018-12-22T10:09:12.405Z,77.81
2018-12-22T10:11:42.193Z,78.17
2018-12-22T10:14:11.969Z,77.89
2018-12-22T10:16:42.078Z,77.46
2018-12-22T10:19:12.153Z,77.39
2018-12-22T10:21:42.711Z,77.80
2018-12-22T10:27:03.619Z,77.54
2018-12-22T10:29:33.421Z,76.84
2018-12-22T10:32:04.040Z,77.68
2018-12-22T10:34:33.904Z,76.37
2018-12-22T10:37:05.000Z,76.03
2018-12-22T10:39:34.871Z,76.41
2018-12-22T10:42:05.513Z,76.71
2018-12-22T10:44:35.322Z,76.34
2018-12-22T10:47:09.116Z,76.93
2018-12-22T10:49:39.124Z,76.44
2018-12-22T10:52:08.910Z,77.39
2018-12-22T10:54:38.721Z,77.62
2018-12-22T10:57:08.552Z,77.64
2018-12-22T10:59:38.320Z,77.54
2018-12-22T11:02:08.433Z,77.84
2018-12-22T11:04:38.531Z,76.90
2018-12-22T11:07:08.179Z,77.58
2018-12-22T11:09:38.209Z,77.39
2018-12-22T11:12:07.952Z,76.62
2018-12-22T11:14:37.737Z,75.92
2018-12-22T11:17:07.590Z,75.95
2018-12-22T11:19:37.702Z,75.48
2018-12-22T11:22:08.481Z,76.08
2018-12-22T11:24:38.481Z,75.36
2018-12-22T11:27:08.329Z,76.04
2018-12-22T11:29:38.492Z,74.88
2018-12-22T11:32:08.406Z,74.82
2018-12-22T11:34:38.324Z,75.12
2018-12-22T11:37:08.191Z,75.11
2018-12-22T11:39:37.972Z,75.32
2018-12-22T11:42:07.940Z,75.73
2018-12-22T11:44:37.655Z,75.40
2018-12-22T11:47:20.660Z,75.96
2018-12-22T11:49:50.519Z,76.22
2018-12-22T11:52:20.625Z,74.75
2018-12-22T11:54:50.909Z,74.55
2018-12-22T11:57:20.805Z,73.88
2018-12-22T11:59:50.563Z,74.39
2018-12-22T12:02:20.425Z,74.01
2018-12-22T12:04:50.160Z,73.30
2018-12-22T12:07:20.067Z,73.33
2018-12-22T12:09:50.005Z,74.02
2018-12-22T12:12:19.898Z,73.22
2018-12-22T12:14:49.730Z,73.28
2018-12-22T12:19:34.389Z,73.75
2018-12-22T12:22:04.890Z,73.19
2018-12-22T12:24:34.684Z,73.80
2018-12-22T12:27:09.900Z,73.44
2018-12-22T12:29:39.698Z,73.61
2018-12-22T12:32:09.849Z,73.71
2018-12-22T12:34:40.252Z,73.51
2018-12-22T12:37:10.152Z,73.86
2018-12-22T12:39:40.072Z,73.80
2018-12-22T12:42:10.253Z,72.95
2018-12-22T12:44:43.669Z,71.51
2018-12-22T12:47:14.592Z,72.74
2018-12-22T12:49:44.780Z,73.69
2018-12-22T12:52:14.706Z,74.24
2018-12-22T12:54:44.672Z,75.10
2018-12-22T12:57:14.493Z,76.13
2018-12-22T12:59:44.565Z,76.81
2018-12-22T13:02:14.996Z,77.36
2018-12-22T13:04:45.123Z,76.94
2018-12-22T13:07:15.013Z,75.42
2018-12-22T13:09:44.977Z,73.86
2018-12-22T13:12:20.050Z,74.50
2018-12-22T13:14:52.125Z,74.71
2018-12-22T13:17:22.125Z,75.62
2018-12-22T13:19:52.659Z,76.05
2018-12-22T13:22:22.554Z,75.58
2018-12-22T13:24:52.365Z,74.56
2018-12-22T13:27:22.323Z,75.18
2018-12-22T13:29:52.440Z,76.36
2018-12-22T13:32:22.173Z,76.63
2018-12-22T13:34:51.970Z,77.09
2018-12-22T13:37:21.633Z,77.04
2018-12-22T13:39:51.744Z,78.07
2018-12-22T13:42:21.537Z,78.81
2018-12-22T13:44:51.357Z,79.39
2018-12-22T13:47:21.187Z,79.31
2018-12-22T13:49:51.330Z,78.57
2018-12-22T13:52:21.114Z,78.28
2018-12-22T13:54:50.946Z,77.88
2018-12-22T13:57:20.732Z,77.85
2018-12-22T13:59:51.016Z,77.64
2018-12-22T14:02:20.778Z,75.97
2018-12-22T14:04:50.521Z,76.05
2018-12-22T14:07:20.289Z,75.58
2018-12-22T14:09:50.195Z,77.32
2018-12-22T14:12:19.896Z,75.19
2018-12-22T14:14:50.295Z,75.45
2018-12-22T14:17:28.590Z,75.43
2018-12-22T14:20:11.457Z,75.89
2018-12-22T14:22:41.336Z,75.30
2018-12-22T14:25:18.035Z,77.65
2018-12-22T14:27:47.776Z,76.45
2018-12-22T14:30:17.733Z,76.28
2018-12-22T14:32:47.936Z,75.27
2018-12-22T14:35:41.951Z,76.09
2018-12-22T14:38:11.721Z,76.75
2018-12-22T14:40:41.791Z,77.11
2018-12-22T14:43:11.553Z,77.38
2018-12-22T14:45:41.395Z,77.30
2018-12-22T14:48:11.188Z,77.95
2018-12-22T14:50:40.986Z,77.72
2018-12-22T14:53:11.527Z,77.79
2018-12-22T14:55:41.672Z,77.66
2018-12-22T14:58:17.699Z,78.48
2018-12-22T15:00:47.558Z,78.42
2018-12-22T15:03:17.296Z,78.66
2018-12-22T15:05:47.213Z,78.79
2018-12-22T15:08:17.200Z,78.83
2018-12-22T15:10:47.064Z,78.49
2018-12-22T15:13:16.733Z,78.87
2018-12-22T15:15:47.069Z,78.76
2018-12-22T15:18:16.974Z,78.76
2018-12-22T15:20:47.002Z,79.07
2018-12-22T15:23:17.360Z,80.71
2018-12-22T15:25:47.108Z,81.00
2018-12-22T15:28:16.919Z,81.03
2018-12-22T15:30:46.836Z,81.00
2018-12-22T15:33:16.603Z,81.31
2018-12-22T15:35:46.452Z,81.71
2018-12-22T15:38:20.156Z,81.60
2018-12-22T15:40:51.425Z,81.55
2018-12-22T15:43:22.346Z,81.32
2018-12-22T15:45:52.138Z,81.72
2018-12-22T15:48:21.939Z,82.06
2018-12-22T15:50:51.956Z,82.47
2018-12-22T15:53:22.034Z,82.09
2018-12-22T15:55:51.991Z,82.21
2018-12-22T15:58:21.813Z,83.97
2018-12-22T16:00:52.263Z,82.09
2018-12-22T16:03:21.920Z,81.98
2018-12-22T16:05:51.828Z,79.61
2018-12-22T16:08:22.428Z,78.50
2018-12-22T16:10:52.932Z,79.57
2018-12-22T16:13:22.738Z,78.42
2018-12-22T16:15:52.805Z,76.89
2018-12-22T16:18:22.995Z,76.33
2018-12-22T16:20:52.964Z,76.17
2018-12-22T16:23:22.795Z,77.13
2018-12-22T16:25:52.677Z,77.15
2018-12-22T16:28:32.393Z,77.08
2018-12-22T16:31:02.868Z,77.54
2018-12-22T16:33:33.488Z,77.06
2018-12-22T16:36:04.097Z,77.24
2018-12-22T16:38:33.806Z,77.70
2018-12-22T16:41:07.025Z,77.93
2018-12-22T16:43:36.873Z,77.51
2018-12-22T16:46:07.953Z,78.29
2018-12-22T16:48:39.389Z,78.12
2018-12-22T16:51:09.324Z,78.62
2018-12-22T16:53:39.407Z,78.80
2018-12-22T16:56:10.053Z,79.56
2018-12-22T16:58:43.805Z,79.25
2018-12-22T17:04:55.307Z,80.16
2018-12-22T17:07:25.081Z,80.55
2018-12-22T17:09:54.879Z,79.95
2018-12-22T17:12:24.653Z,80.08
2018-12-22T17:14:54.403Z,80.56
2018-12-22T17:17:24.472Z,80.62
2018-12-22T17:19:54.364Z,80.30
2018-12-22T17:23:39.532Z,80.89
2018-12-22T17:26:10.800Z,81.40
2018-12-22T17:28:40.709Z,81.13
2018-12-22T17:31:10.647Z,81.08
2018-12-22T17:33:40.637Z,81.41
2018-12-22T17:36:10.555Z,82.23
2018-12-22T17:38:40.476Z,82.02
2018-12-22T17:41:10.600Z,82.08
2018-12-22T17:43:42.288Z,82.52
2018-12-22T17:46:12.165Z,83.09
2018-12-22T17:48:41.966Z,83.39
2018-12-22T17:51:11.680Z,82.73
2018-12-22T17:53:41.365Z,83.07
2018-12-22T17:56:11.196Z,84.58
2018-12-22T17:58:40.894Z,83.78
2018-12-22T18:01:10.806Z,83.55
2018-12-22T18:03:41.327Z,86.13
2018-12-22T18:06:11.355Z,85.12
2018-12-22T18:08:42.071Z,83.88
2018-12-22T18:11:11.916Z,83.90
2018-12-22T18:13:41.714Z,83.45
2018-12-22T18:16:11.523Z,83.33
2018-12-22T18:18:42.171Z,82.94
2018-12-22T18:21:12.048Z,83.48
2018-12-22T18:23:41.865Z,82.89
2018-12-22T18:26:11.924Z,82.74
2018-12-22T18:28:41.801Z,83.24
2018-12-22T18:31:11.864Z,82.91
2018-12-22T18:33:41.784Z,82.19
2018-12-22T18:36:12.601Z,82.22
2018-12-22T18:38:43.040Z,81.98
2018-12-22T18:41:12.812Z,82.58
2018-12-22T18:43:42.821Z,82.50
2018-12-22T18:46:12.652Z,82.07
2018-12-22T18:48:43.044Z,82.20
2018-12-22T18:51:12.876Z,81.70
2018-12-22T18:53:43.435Z,84.97
2018-12-22T18:56:13.263Z,85.56
2018-12-22T18:58:43.174Z,83.65
2018-12-22T19:01:13.026Z,81.77
2018-12-22T19:03:44.795Z,82.81
2018-12-22T19:06:15.081Z,81.52
2018-12-22T19:08:44.867Z,81.87
2018-12-22T19:11:17.449Z,80.93
2018-12-22T19:13:47.441Z,81.81
2018-12-22T19:16:17.963Z,81.75
2018-12-22T19:18:48.498Z,80.67
2018-12-22T19:21:18.561Z,80.51
2018-12-22T19:23:48.492Z,80.77
2018-12-22T19:26:18.247Z,80.78
2018-12-22T19:28:48.501Z,81.32
2018-12-22T19:31:18.525Z,81.16
2018-12-22T19:33:53.503Z,81.13
2018-12-22T19:36:20.172Z,80.97
2018-12-22T19:38:49.978Z,79.90
2018-12-22T19:41:19.848Z,80.40
2018-12-22T19:43:49.669Z,80.56
2018-12-22T19:46:19.494Z,80.39
2018-12-22T19:48:49.460Z,80.69
2018-12-22T19:51:19.370Z,80.74
2018-12-22T19:53:49.168Z,80.44
2018-12-22T19:56:18.969Z,81.10
2018-12-22T19:58:48.811Z,80.77
2018-12-22T20:01:18.640Z,81.18
2018-12-22T20:03:48.652Z,80.79
2018-12-22T20:06:18.870Z,80.97
2018-12-22T20:08:48.709Z,81.09
2018-12-22T20:11:18.818Z,82.46
2018-12-22T20:13:48.596Z,82.31
2018-12-22T20:16:19.443Z,82.01
2018-12-22T20:18:49.385Z,81.65
2018-12-22T20:21:19.267Z,82.51
2018-12-22T20:23:49.373Z,81.74
2018-12-22T20:26:19.360Z,82.34
2018-12-22T20:28:49.092Z,82.60
2018-12-22T20:31:18.924Z,82.11
2018-12-22T20:33:48.818Z,82.05
2018-12-22T20:36:18.971Z,82.21
2018-12-22T20:38:48.769Z,82.53
2018-12-22T20:41:18.474Z,83.33
2018-12-22T20:43:49.452Z,82.97
2018-12-22T20:46:19.262Z,83.03
2018-12-22T20:48:49.192Z,82.55
2018-12-22T20:51:18.948Z,83.03
2018-12-22T20:53:48.773Z,82.55
2018-12-22T20:56:18.567Z,82.90
2018-12-22T20:58:48.448Z,82.76
2018-12-22T21:01:18.443Z,82.83
2018-12-22T21:03:48.885Z,82.89
2018-12-22T21:06:24.098Z,82.97
2018-12-22T21:08:54.251Z,83.62
2018-12-22T21:11:24.243Z,83.37
2018-12-22T21:13:54.608Z,83.37
2018-12-22T21:16:24.600Z,83.52
2018-12-22T21:18:55.007Z,84.31
2018-12-22T21:21:24.870Z,84.55
2018-12-22T21:23:54.857Z,84.67
2018-12-22T21:26:25.832Z,85.05
2018-12-22T21:28:55.942Z,84.56
2018-12-22T21:31:25.800Z,84.92
2018-12-22T21:33:55.489Z,83.83
2018-12-22T21:36:25.230Z,84.15
2018-12-22T21:38:55.131Z,84.32
2018-12-22T21:41:24.819Z,84.40
2018-12-22T21:43:54.689Z,85.09
2018-12-22T21:46:24.517Z,84.87
2018-12-22T21:48:54.340Z,84.42
2018-12-22T21:51:24.149Z,83.86
2018-12-22T21:53:54.054Z,84.96
2018-12-22T21:56:23.879Z,84.86
2018-12-22T21:58:53.617Z,83.98
2018-12-22T22:01:23.386Z,84.29
2018-12-22T22:03:53.325Z,83.82
2018-12-22T22:06:23.086Z,83.63
2018-12-22T22:08:53.115Z,84.16
2018-12-22T22:11:23.026Z,83.73
2018-12-22T22:13:52.929Z,83.51
2018-12-22T22:16:22.699Z,83.26
2018-12-22T22:18:52.619Z,83.11
2018-12-22T22:21:22.437Z,84.23
2018-12-22T22:23:52.238Z,84.24
2018-12-22T22:26:22.656Z,83.99
2018-12-22T22:28:52.740Z,84.30
2018-12-22T22:31:22.514Z,83.53
2018-12-22T22:33:52.655Z,83.54
2018-12-22T22:36:24.615Z,83.39
2018-12-22T22:38:54.592Z,83.94
2018-12-22T22:41:24.546Z,84.96
2018-12-22T22:43:54.631Z,82.64
2018-12-22T22:46:24.994Z,83.04
2018-12-22T22:48:55.143Z,83.10
2018-12-22T22:51:25.546Z,82.45
2018-12-22T22:53:56.033Z,81.88
2018-12-22T22:56:26.902Z,81.67
2018-12-22T22:58:56.773Z,82.85
2018-12-22T23:01:27.017Z,82.08
2018-12-22T23:03:58.472Z,82.06
2018-12-22T23:06:28.445Z,81.94
2018-12-22T23:08:58.913Z,82.26
2018-12-22T23:11:29.709Z,81.96
2018-12-22T23:13:59.653Z,83.01
2018-12-22T23:16:29.474Z,82.63
2018-12-22T23:19:00.007Z,82.24
2018-12-22T23:21:30.184Z,82.92
2018-12-22T23:24:02.193Z,82.60
2018-12-22T23:26:31.977Z,82.65
2018-12-22T23:29:05.925Z,83.28
2018-12-22T23:31:35.671Z,83.05
2018-12-22T23:34:05.707Z,82.67
2018-12-22T23:36:35.613Z,82.88
2018-12-22T23:39:08.716Z,82.46
2018-12-22T23:41:38.833Z,82.49
2018-12-22T23:44:08.497Z,82.36
2018-12-22T23:46:39.691Z,82.58
2018-12-22T23:49:09.571Z,83.48
2018-12-22T23:51:39.827Z,83.30
2018-12-22T23:54:09.668Z,82.97
2018-12-22T23:56:39.609Z,83.49
2018-12-22T23:59:09.264Z,83.30
